Time;durP1;ratioP1;P1;durP2;ratioP2;P2;SDS_P1;SDS_P2;PMS_P1;PMS_P2;Temp;Humidity;BMP_temperature;BMP_pressure;BME280_temperature;BME280_humidity;BME280_pressure;Samples;Min_cycle;Max_cycle;Signal;HPM_P1;HPM_P2
2023/07/14 00:10:00;;;;;;;93.03;44.08;;;;;;;28.01;42.63;100773.81;21075807;28;20043;-74
2023/07/14 00:20:03;;;;;;;92.75;42.72;;;;;;;27.84;42.59;100738.91;21077200;28;20356;-74
2023/07/14 00:30:28;;;;;;;83.68;40.60;;;;;;;27.96;42.93;100782.41;21091713;28;20036;-74
2023/07/14 00:40:45;;;;;;;81.55;37.83;;;;;;;27.30;42.55;100707.50;21085027;28;20507;-75
2023/07/14 00:51:12;;;;;;;75.22;35.92;;;;;;;27.80;42.85;100763.22;21089786;28;20032;-75
2023/07/14 01:01:21;;;;;;;69.72;35.85;;;;;;;27.82;42.67;100752.50;21090007;28;20048;-75
2023/07/14 01:11:31;;;;;;;66.25;33.13;;;;;;;27.83;42.53;100764.56;21091060;28;20395;-75
2023/07/14 01:21:33;;;;;;;61.88;33.45;;;;;;;27.82;42.41;100769.38;21090136;28;20040;-74
2023/07/14 01:31:35;;;;;;;61.45;30.55;;;;;;;27.93;42.42;100805.56;21088710;28;20046;-74
2023/07/14 01:41:37;;;;;;;55.72;30.95;;;;;;;27.98;42.25;100827.91;21086128;28;20036;-75
2023/07/14 01:51:43;;;;;;;55.15;28.42;;;;;;;27.93;42.14;100842.13;21085916;28;20367;-74
2023/07/14 02:01:45;;;;;;;54.20;27.65;;;;;;;27.94;42.10;100835.34;21085162;28;20044;-74
2023/07/14 02:11:53;;;;;;;43.83;25.25;;;;;;;27.91;42.48;100813.53;21082114;28;20058;-74
2023/07/14 02:21:55;;;;;;;48.42;25.48;;;;;;;28.04;42.40;100849.06;21083144;28;20085;-76
2023/07/14 02:32:06;;;;;;;43.55;24.40;;;;;;;28.03;42.18;100847.41;21082934;28;20032;-76
2023/07/14 02:42:07;;;;;;;43.47;23.85;;;;;;;27.95;42.09;100822.94;21080728;28;20032;-75
2023/07/14 02:52:09;;;;;;;34.97;20.73;;;;;;;27.79;42.42;100798.13;21081520;28;20050;-74
2023/07/14 03:02:11;;;;;;;34.10;21.13;;;;;;;27.95;42.38;100825.75;21079928;28;20124;-76
2023/07/14 03:12:12;;;;;;;38.53;22.25;;;;;;;27.89;42.57;100813.00;21078150;28;20052;-75
2023/07/14 03:22:13;;;;;;;33.17;20.38;;;;;;;28.05;42.55;100850.75;21078985;28;20027;-74
2023/07/14 03:32:15;;;;;;;31.80;18.73;;;;;;;28.02;42.33;100851.38;21078652;28;20032;-74
2023/07/14 03:42:16;;;;;;;30.83;18.75;;;;;;;28.01;42.15;100844.13;21078140;28;20093;-74
2023/07/14 03:52:20;;;;;;;27.63;17.77;;;;;;;27.88;41.79;100836.69;21077240;28;20028;-74
2023/07/14 04:02:21;;;;;;;25.90;16.27;;;;;;;28.01;42.17;100855.38;21076442;28;20048;-73
2023/07/14 04:12:22;;;;;;;23.27;15.85;;;;;;;27.95;42.06;100828.56;21076807;28;20052;-74
2023/07/14 04:22:26;;;;;;;26.00;16.10;;;;;;;28.03;42.21;100824.91;21074550;28;20036;-74
2023/07/14 04:32:28;;;;;;;22.50;15.48;;;;;;;28.05;42.05;100811.34;21075782;28;20024;-74
2023/07/14 04:42:29;;;;;;;21.63;16.23;;;;;;;27.94;41.96;100777.09;21075681;28;20490;-74
2023/07/14 04:52:30;;;;;;;22.65;14.23;;;;;;;27.92;42.24;100773.00;21075199;28;20024;-75
2023/07/14 05:02:32;;;;;;;22.10;14.75;;;;;;;27.92;41.99;100771.00;21073195;28;20524;-75
2023/07/14 05:12:36;;;;;;;20.70;14.10;;;;;;;27.89;42.10;100751.97;21087048;28;20426;-75
2023/07/14 05:22:42;;;;;;;20.17;14.00;;;;;;;28.00;41.75;100786.22;21088798;28;20421;-74
2023/07/14 05:32:45;;;;;;;17.30;13.25;;;;;;;27.82;42.02;100775.00;21086422;28;20436;-74
2023/07/14 05:42:47;;;;;;;20.02;12.63;;;;;;;27.95;41.78;100803.25;21086774;28;20032;-75
2023/07/14 05:52:48;;;;;;;18.25;12.48;;;;;;;28.00;41.67;100803.09;21086204;28;20040;-75
2023/07/14 06:02:52;;;;;;;18.35;12.57;;;;;;;27.90;41.61;100786.53;21083786;28;20044;-75
2023/07/14 06:12:54;;;;;;;16.92;12.00;;;;;;;27.93;41.65;100811.19;21084369;28;20047;-74
2023/07/14 06:22:55;;;;;;;17.27;12.02;;;;;;;27.96;41.62;100824.59;21083883;28;20304;-74
2023/07/14 06:32:57;;;;;;;13.50;11.15;;;;;;;27.98;41.53;100819.47;21084046;28;20032;-74
2023/07/14 06:43:00;;;;;;;14.93;10.50;;;;;;;27.88;41.72;100809.38;21082574;28;20035;-75
2023/07/14 06:53:04;;;;;;;14.93;11.00;;;;;;;27.89;41.87;100813.00;21082015;28;20035;-74
2023/07/14 07:03:09;;;;;;;12.93;10.77;;;;;;;27.94;41.58;100829.72;21079023;28;20449;-73
2023/07/14 07:13:12;;;;;;;12.45;10.07;;;;;;;27.94;41.75;100832.53;21080426;28;20028;-74
2023/07/14 07:23:14;;;;;;;12.02;9.75;;;;;;;27.88;41.89;100814.19;21079517;28;20058;-74
2023/07/14 07:33:15;;;;;;;11.88;10.30;;;;;;;27.91;41.85;100833.22;21078815;28;20093;-75
2023/07/14 07:43:17;;;;;;;13.38;10.70;;;;;;;27.83;41.68;100827.25;21077843;28;20073;-73
2023/07/14 07:53:18;;;;;;;12.20;9.98;;;;;;;27.89;41.46;100852.38;21077210;28;20036;-74
2023/07/14 08:03:20;;;;;;;11.77;9.75;;;;;;;27.77;41.61;100842.63;21076775;28;20040;-74
2023/07/14 08:13:24;;;;;;;11.23;9.32;;;;;;;27.88;41.55;100867.59;21075764;28;20048;-73
2023/07/14 08:23:26;;;;;;;10.68;9.10;;;;;;;27.88;41.81;100878.84;21074666;28;20044;-74
2023/07/14 08:33:28;;;;;;;11.48;9.73;;;;;;;27.70;41.68;100856.31;21076138;28;20404;-75
2023/07/14 08:43:54;;;;;;;10.68;9.48;;;;;;;27.81;41.20;100879.34;21082341;28;20024;-74
2023/07/14 08:54:02;;;;;;;11.48;9.18;;;;;;;27.85;41.16;100891.59;21091007;28;20093;-75
2023/07/14 09:04:14;;;;;;;10.98;9.43;;;;;;;27.73;41.44;100919.53;21089888;28;20475;-81
2023/07/14 09:14:43;;;;;;;11.35;8.93;;;;;;;27.78;41.22;100903.34;21092846;28;20028;-81
2023/07/14 09:24:59;;;;;;;10.10;8.45;;;;;;;27.78;41.08;100908.97;21088363;28;20102;-76
2023/07/14 09:35:12;;;;;;;9.63;7.75;;;;;;;27.76;41.19;100888.75;21088230;28;20036;-75
2023/07/14 09:45:26;;;;;;;8.63;7.55;;;;;;;27.74;41.19;100896.72;21086695;28;20055;-76
2023/07/14 09:55:43;;;;;;;8.93;7.88;;;;;;;27.69;41.17;100894.03;21085848;28;20096;-77
2023/07/14 10:05:54;;;;;;;8.52;7.22;;;;;;;27.73;41.03;100914.75;21085018;28;20105;-76
2023/07/14 10:16:11;;;;;;;8.80;7.90;;;;;;;27.71;40.72;100922.63;21084296;28;20363;-76
2023/07/14 10:26:15;;;;;;;8.70;7.32;;;;;;;27.72;40.68;100927.16;21084070;28;20092;-76
2023/07/14 10:36:20;;;;;;;8.85;7.57;;;;;;;27.71;40.63;100935.84;21082480;28;20032;-76
2023/07/14 10:46:30;;;;;;;9.02;7.10;;;;;;;27.70;40.64;100940.66;21046586;28;20039;-75
2023/07/14 10:56:37;;;;;;;7.97;7.10;;;;;;;27.71;40.12;100942.31;21081061;28;20044;-75
2023/07/14 11:06:43;;;;;;;8.05;6.85;;;;;;;27.28;40.16;100883.19;21079136;28;20101;-75
2023/07/14 11:17:15;;;;;;;7.22;6.53;;;;;;;27.64;40.25;100958.84;21079990;28;20417;-75
2023/07/14 11:27:42;;;;;;;7.30;6.28;;;;;;;27.19;40.12;100900.00;21078638;28;20043;-75
2023/07/14 11:38:15;;;;;;;7.50;6.73;;;;;;;27.62;40.05;100983.63;21047382;28;20097;-75
2023/07/14 11:48:38;;;;;;;7.28;6.40;;;;;;;27.35;40.22;100946.19;21077773;28;20081;-76
2023/07/14 11:58:40;;;;;;;7.00;6.30;;;;;;;27.60;39.80;100964.28;21076449;28;20044;-75
2023/07/14 12:08:42;;;;;;;6.90;5.95;;;;;;;27.62;40.14;100980.81;21076604;28;20040;-73
2023/07/14 12:19:18;;;;;;;7.72;5.68;;;;;;;27.38;40.09;100947.50;21085816;28;20109;-75
2023/07/14 12:29:22;;;;;;;6.72;5.88;;;;;;;27.69;39.93;100981.19;21092611;28;20164;-75
2023/07/14 12:39:23;;;;;;;6.75;5.85;;;;;;;27.55;39.79;100977.66;21091813;28;20040;-74
2023/07/14 12:49:46;;;;;;;6.82;5.55;;;;;;;27.49;39.77;100984.56;21090220;28;20468;-77
2023/07/14 12:59:52;;;;;;;5.97;5.38;;;;;;;27.66;39.91;101020.34;21091133;28;20027;-76
2023/07/14 13:10:18;;;;;;;5.90;5.40;;;;;;;27.65;39.74;101032.75;21088166;28;20094;-75
2023/07/14 13:20:24;;;;;;;6.13;5.10;;;;;;;27.66;39.90;101029.63;21088685;28;20066;-76
2023/07/14 13:30:30;;;;;;;5.53;5.00;;;;;;;27.65;40.00;101033.59;21087708;28;20036;-74
2023/07/14 13:40:38;;;;;;;5.57;4.97;;;;;;;27.58;39.81;101017.19;21086815;28;20452;-75
2023/07/14 13:50:43;;;;;;;5.90;4.85;;;;;;;27.66;39.76;101035.25;21087322;28;20035;-75
2023/07/14 14:00:46;;;;;;;6.68;5.10;;;;;;;27.67;39.88;101019.19;21086049;28;20474;-75
2023/07/14 14:10:48;;;;;;;6.05;5.35;;;;;;;27.65;39.99;101021.50;21085221;28;20040;-75
2023/07/14 14:20:53;;;;;;;4.30;3.90;;;;;;;27.64;39.83;101031.09;21084467;28;20536;-75
2023/07/14 14:30:57;;;;;;;4.47;4.07;;;;;;;27.68;40.09;101032.13;21083876;28;20024;-75
2023/07/14 14:41:02;;;;;;;4.70;4.18;;;;;;;27.69;40.06;101028.97;21079995;28;20106;-75
2023/07/14 14:51:03;;;;;;;4.57;4.18;;;;;;;27.62;40.05;101022.97;21082210;28;20032;-75
2023/07/14 15:01:21;;;;;;;5.20;4.30;;;;;;;27.71;40.12;101037.91;21081041;28;20036;-76
2023/07/14 15:11:24;;;;;;;4.13;3.72;;;;;;;27.71;40.06;101021.03;21078633;28;20048;-73
2023/07/14 15:21:25;;;;;;;4.32;3.92;;;;;;;27.66;40.44;101031.59;21079257;28;20040;-74
2023/07/14 15:31:27;;;;;;;4.28;3.88;;;;;;;27.73;40.71;101044.06;21078853;28;20028;-74
2023/07/14 15:41:28;;;;;;;4.25;3.83;;;;;;;27.61;40.54;101032.56;21077212;28;20031;-74
2023/07/14 15:51:31;;;;;;;4.22;3.70;;;;;;;27.58;40.64;101044.47;21075577;28;20028;-73
2023/07/14 16:01:32;;;;;;;4.05;3.65;;;;;;;27.75;40.73;101061.44;21080369;28;20035;-74
2023/07/14 16:11:39;;;;;;;4.05;3.65;;;;;;;27.73;40.78;101069.38;21078203;28;20139;-75
2023/07/14 16:21:52;;;;;;;3.53;3.22;;;;;;;27.70;40.87;101055.09;21077999;28;20044;-75
2023/07/14 16:31:54;;;;;;;4.10;3.72;;;;;;;27.77;40.80;101061.94;21076266;28;20020;-75
2023/07/14 16:41:59;;;;;;;3.58;3.28;;;;;;;27.62;40.80;101032.25;21074233;28;20042;-76
2023/07/14 16:52:01;;;;;;;3.47;3.17;;;;;;;27.69;40.36;101043.03;21074662;28;20044;-75
2023/07/14 17:02:13;;;;;;;3.45;2.97;;;;;;;27.78;40.83;101049.53;21077234;28;20047;-75
2023/07/14 17:12:17;;;;;;;3.13;2.83;;;;;;;27.73;40.67;101041.25;21087882;28;20044;-77
2023/07/14 17:22:22;;;;;;;3.70;3.00;;;;;;;27.89;41.00;101046.44;21089044;28;20036;-73
2023/07/14 17:32:28;;;;;;;3.25;2.95;;;;;;;27.91;40.74;101044.13;21087909;28;20024;-74
2023/07/14 17:42:32;;;;;;;3.53;3.13;;;;;;;27.83;41.05;101040.97;21087191;28;20031;-74
2023/07/14 17:52:37;;;;;;;3.20;2.90;;;;;;;27.82;40.94;101044.94;21086758;28;20027;-74
2023/07/14 18:02:40;;;;;;;3.00;2.70;;;;;;;27.91;40.96;101067.47;21084547;28;20055;-74
2023/07/14 18:12:51;;;;;;;4.13;3.10;;;;;;;27.72;40.90;101042.41;21084555;28;20032;-73
2023/07/14 18:22:54;;;;;;;3.03;2.72;;;;;;;27.90;41.01;101068.59;21082635;28;20552;-74
2023/07/14 18:33:07;;;;;;;3.45;3.00;;;;;;;27.91;41.30;101072.25;21082983;28;20460;-74
2023/07/14 18:43:24;;;;;;;3.00;2.80;;;;;;;27.80;41.15;101035.16;21084348;28;20036;-74
2023/07/14 18:53:27;;;;;;;3.63;3.28;;;;;;;27.81;41.08;101026.41;21081416;28;20036;-74
2023/07/14 19:03:34;;;;;;;2.72;2.53;;;;;;;27.97;41.18;101052.09;21079143;28;20098;-74
2023/07/14 19:13:37;;;;;;;3.03;2.72;;;;;;;27.98;40.88;101052.91;21079105;28;20058;-74
2023/07/14 19:23:38;;;;;;;3.20;2.90;;;;;;;27.91;41.16;101035.69;21078505;28;20417;-75
2023/07/14 19:33:39;;;;;;;3.47;2.78;;;;;;;27.89;41.29;101009.88;21078437;28;20020;-74
2023/07/14 19:43:44;;;;;;;2.72;2.53;;;;;;;28.01;41.25;101024.13;21078026;28;20104;-74
2023/07/14 19:53:46;;;;;;;2.45;2.25;;;;;;;27.99;41.23;101037.69;21077395;28;20054;-74
2023/07/14 20:03:48;;;;;;;2.55;2.35;;;;;;;28.02;41.08;101048.28;21076413;28;20153;-73
2023/07/14 20:13:53;;;;;;;2.60;2.40;;;;;;;28.00;40.97;101047.81;21076450;28;20478;-74
2023/07/14 20:24:16;;;;;;;2.50;2.30;;;;;;;28.03;41.00;101044.31;21075649;28;20074;-74
2023/07/14 20:34:17;;;;;;;3.35;3.05;;;;;;;27.97;41.24;101014.69;21075307;28;20044;-74
2023/07/14 20:44:19;;;;;;;2.75;2.55;;;;;;;27.97;41.69;101014.69;21091522;28;20044;-74
2023/07/14 20:54:21;;;;;;;2.50;2.30;;;;;;;28.04;41.24;101023.47;21091345;28;20470;-74
2023/07/14 21:04:22;;;;;;;3.78;2.90;;;;;;;28.04;41.63;101020.66;21089929;28;20048;-74
2023/07/14 21:14:24;;;;;;;3.00;2.80;;;;;;;28.09;41.36;101023.34;21089438;28;20027;-74
2023/07/14 21:24:25;;;;;;;3.65;2.30;;;;;;;27.95;41.47;101002.94;21089642;28;20044;-75
2023/07/14 21:34:27;;;;;;;2.65;2.42;;;;;;;28.05;41.15;101030.78;21089068;28;20032;-74
2023/07/14 21:44:28;;;;;;;2.78;2.58;;;;;;;28.03;41.48;101021.81;21086909;28;20040;-74
2023/07/14 21:54:30;;;;;;;2.70;2.50;;;;;;;28.10;41.75;101044.69;21084450;28;20101;-74
2023/07/14 22:04:33;;;;;;;2.63;2.30;;;;;;;27.96;41.42;101033.56;21085296;28;20075;-75
2023/07/14 22:14:34;;;;;;;4.72;2.78;;;;;;;28.08;40.66;101041.34;21084562;28;20032;-76
2023/07/14 22:24:36;;;;;;;3.30;2.22;;;;;;;28.06;41.30;101016.38;21083774;28;20036;-76
2023/07/14 22:34:40;;;;;;;3.10;2.83;;;;;;;27.98;41.41;101016.34;21083829;28;20032;-76
2023/07/14 22:44:42;;;;;;;2.55;2.35;;;;;;;27.73;41.34;100973.78;21083956;28;20028;-75
2023/07/14 22:54:43;;;;;;;3.00;2.78;;;;;;;28.07;41.25;101022.81;21081473;28;20172;-75
2023/07/14 23:04:45;;;;;;;2.50;2.30;;;;;;;28.04;41.60;101045.97;21078064;28;20040;-74
2023/07/14 23:14:46;;;;;;;2.78;2.58;;;;;;;27.96;41.42;101027.09;21080068;28;20036;-74
2023/07/14 23:24:47;;;;;;;2.50;2.30;;;;;;;28.12;41.43;101047.97;21079291;28;20028;-75
2023/07/14 23:34:49;;;;;;;2.40;2.20;;;;;;;28.05;41.36;101050.47;21079212;28;20024;-75
2023/07/14 23:44:50;;;;;;;3.00;2.80;;;;;;;28.07;41.43;101077.09;21078131;28;20036;-74
2023/07/14 23:54:51;;;;;;;2.80;2.60;;;;;;;28.12;41.86;101070.47;21077735;28;20093;-77
